Time;durP1;ratioP1;P1;durP2;ratioP2;P2;SDS_P1;SDS_P2;PMS_P1;PMS_P2;Temp;Humidity;BMP_temperature;BMP_pressure;BME280_temperature;BME280_humidity;BME280_pressure;Samples;Min_cycle;Max_cycle;Signal;HPM_P1;HPM_P2
2021/06/03 00:02:14;;;;;;;;;;;17.80;92.60;;;;;;5008186;28;20012;-59
2021/06/03 00:04:41;;;;;;;;;;;17.60;92.30;;;;;;5010586;28;19921;-58
2021/06/03 00:07:08;;;;;;;;;;;17.70;92.80;;;;;;5008074;28;19952;-59
2021/06/03 00:09:34;;;;;;;;;;;17.70;93.00;;;;;;5009454;28;19936;-59
2021/06/03 00:12:00;;;;;;;;;;;17.60;92.40;;;;;;5008171;28;19925;-59
2021/06/03 00:14:26;;;;;;;;;;;17.70;92.40;;;;;;5006844;28;20405;-58
2021/06/03 00:16:57;;;;;;;;;;;17.70;92.20;;;;;;5008068;28;19925;-59
2021/06/03 00:19:23;;;;;;;;;;;17.70;92.30;;;;;;5007444;28;19925;-58
2021/06/03 00:21:50;;;;;;;;;;;17.70;92.30;;;;;;5008078;28;20297;-57
2021/06/03 00:24:16;;;;;;;;;;;17.70;92.50;;;;;;5008394;28;19992;-58
2021/06/03 00:26:42;;;;;;;;;;;17.70;91.60;;;;;;5005001;28;19932;-59
2021/06/03 00:29:11;;;;;;;;;;;17.80;92.50;;;;;;5007476;28;19937;-59
2021/06/03 00:31:37;;;;;;;;;;;17.80;91.30;;;;;;5001910;28;19926;-57
2021/06/03 00:34:03;;;;;;;;;;;17.80;91.60;;;;;;5007644;28;19925;-59
2021/06/03 00:36:32;;;;;;;;;;;17.80;91.90;;;;;;5004704;28;19932;-58
2021/06/03 00:38:58;;;;;;;;;;;17.80;91.70;;;;;;5006990;28;19936;-59
2021/06/03 00:41:25;;;;;;;;;;;17.80;91.50;;;;;;5006768;28;19952;-58
2021/06/03 00:43:51;;;;;;;;;;;17.80;92.00;;;;;;5012567;28;19926;-57
2021/06/03 00:46:17;;;;;;;;;;;17.70;92.40;;;;;;5005316;28;19949;-58
2021/06/03 00:48:45;;;;;;;;;;;17.70;92.50;;;;;;5007221;28;19925;-58
2021/06/03 00:51:11;;;;;;;;;;;17.70;91.90;;;;;;5005775;28;19929;-58
2021/06/03 00:53:39;;;;;;;;;;;17.70;92.20;;;;;;5006315;28;19925;-59
2021/06/03 00:56:06;;;;;;;;;;;17.70;91.60;;;;;;4996095;28;20378;-58
2021/06/03 00:58:38;;;;;;;;;;;17.70;92.30;;;;;;4990253;28;20438;-58
2021/06/03 01:01:10;;;;;;;;;;;17.70;92.00;;;;;;4990147;28;19925;-58
2021/06/03 01:03:37;;;;;;;;;;;17.70;91.30;;;;;;5004144;28;19929;-58
2021/06/03 01:06:11;;;;;;;;;;;17.70;92.10;;;;;;5007872;28;19921;-57
2021/06/03 01:08:40;;;;;;;;;;;17.70;91.90;;;;;;4992529;28;19932;-59
2021/06/03 01:11:12;;;;;;;;;;;17.70;91.20;;;;;;4988023;28;20378;-59
2021/06/03 01:13:39;;;;;;;;;;;17.70;91.70;;;;;;4986551;28;19925;-58
2021/06/03 01:16:05;;;;;;;;;;;17.70;91.50;;;;;;5008555;28;20370;-58
2021/06/03 01:18:33;;;;;;;;;;;17.60;91.60;;;;;;5006426;28;19932;-60
2021/06/03 01:21:03;;;;;;;;;;;17.60;91.50;;;;;;4989390;28;19922;-58
2021/06/03 01:23:48;;;;;;;;;;;17.50;92.30;;;;;;5012699;28;19925;-58
2021/06/03 01:26:16;;;;;;;;;;;17.50;92.50;;;;;;5002635;28;19925;-59
2021/06/03 01:28:46;;;;;;;;;;;17.50;92.20;;;;;;5004946;28;19925;-58
2021/06/03 01:31:13;;;;;;;;;;;17.50;92.30;;;;;;4989225;28;19929;-59
2021/06/03 01:33:41;;;;;;;;;;;17.40;92.00;;;;;;4984282;28;19935;-58
2021/06/03 01:36:10;;;;;;;;;;;17.40;91.80;;;;;;4987505;28;20385;-59
2021/06/03 01:38:37;;;;;;;;;;;17.40;91.60;;;;;;5006532;28;19925;-58
2021/06/03 01:41:05;;;;;;;;;;;17.30;92.00;;;;;;5005503;28;20377;-59
2021/06/03 01:43:35;;;;;;;;;;;17.30;91.70;;;;;;5007398;28;19983;-57
2021/06/03 01:46:02;;;;;;;;;;;17.30;91.80;;;;;;4988294;28;19960;-58
2021/06/03 01:48:29;;;;;;;;;;;17.30;91.80;;;;;;4988857;28;19936;-57
2021/06/03 01:50:58;;;;;;;;;;;17.30;91.90;;;;;;5007106;28;19921;-58
2021/06/03 01:53:27;;;;;;;;;;;17.30;91.40;;;;;;5005923;28;20275;-58
2021/06/03 01:55:54;;;;;;;;;;;17.30;91.50;;;;;;4988626;28;19925;-59
2021/06/03 01:58:21;;;;;;;;;;;17.30;91.70;;;;;;5004511;28;19995;-60
2021/06/03 02:00:48;;;;;;;;;;;17.30;91.40;;;;;;4989094;28;20079;-58
2021/06/03 02:03:17;;;;;;;;;;;17.30;91.30;;;;;;4987446;28;19945;-58
2021/06/03 02:05:44;;;;;;;;;;;17.30;91.60;;;;;;4988225;28;20321;-58
2021/06/03 02:08:10;;;;;;;;;;;17.30;91.70;;;;;;5005918;28;19929;-59
2021/06/03 02:10:45;;;;;;;;;;;17.30;91.20;;;;;;4988446;28;19925;-61
2021/06/03 02:13:18;;;;;;;;;;;17.30;91.00;;;;;;5004193;28;20469;-58
2021/06/03 02:15:51;;;;;;;;;;;17.30;91.10;;;;;;5009607;28;20349;-58
2021/06/03 02:18:18;;;;;;;;;;;17.20;91.40;;;;;;5005983;28;19932;-58
2021/06/03 02:20:47;;;;;;;;;;;17.20;91.40;;;;;;4988556;28;19925;-58
2021/06/03 02:23:18;;;;;;;;;;;17.10;91.30;;;;;;5004880;28;19925;-57
2021/06/03 02:25:46;;;;;;;;;;;17.00;91.80;;;;;;4986509;28;19925;-58
2021/06/03 02:28:14;;;;;;;;;;;17.00;91.00;;;;;;5003839;28;20055;-58
2021/06/03 02:30:41;;;;;;;;;;;17.00;91.10;;;;;;5007462;28;19972;-58
2021/06/03 02:33:07;;;;;;;;;;;17.00;91.00;;;;;;4992192;28;20453;-58
2021/06/03 02:35:38;;;;;;;;;;;17.00;91.40;;;;;;4991828;28;20340;-60
2021/06/03 02:38:05;;;;;;;;;;;17.00;91.40;;;;;;4992230;28;20444;-59
2021/06/03 02:40:33;;;;;;;;;;;17.00;91.40;;;;;;4991976;28;20663;-59
2021/06/03 02:43:00;;;;;;;;;;;17.00;91.30;;;;;;4992435;28;20675;-59
2021/06/03 02:45:28;;;;;;;;;;;16.90;91.60;;;;;;4984593;28;20330;-59
2021/06/03 02:47:56;;;;;;;;;;;16.90;92.00;;;;;;4996756;28;20091;-58
2021/06/03 02:50:25;;;;;;;;;;;16.90;91.50;;;;;;4981012;28;19930;-58
2021/06/03 02:52:54;;;;;;;;;;;16.90;91.60;;;;;;4991060;28;20472;-59
2021/06/03 02:55:24;;;;;;;;;;;16.90;91.60;;;;;;4982482;28;21256;-60
2021/06/03 02:57:56;;;;;;;;;;;16.90;92.00;;;;;;5005979;28;19925;-59
2021/06/03 03:00:26;;;;;;;;;;;16.80;92.60;;;;;;4988097;28;20388;-58
2021/06/03 03:02:53;;;;;;;;;;;16.70;92.60;;;;;;5010280;28;20297;-58
2021/06/03 03:05:21;;;;;;;;;;;16.70;92.00;;;;;;4991384;28;19944;-58
2021/06/03 03:07:48;;;;;;;;;;;16.70;92.30;;;;;;5008585;28;19925;-59
2021/06/03 03:10:20;;;;;;;;;;;16.80;92.30;;;;;;4991613;28;19925;-59
2021/06/03 03:12:47;;;;;;;;;;;16.80;92.00;;;;;;5006551;28;19932;-58
2021/06/03 03:15:14;;;;;;;;;;;16.80;92.20;;;;;;5006748;28;20293;-59
2021/06/03 03:17:41;;;;;;;;;;;16.90;91.80;;;;;;4991840;28;20366;-57
2021/06/03 03:20:13;;;;;;;;;;;16.90;91.90;;;;;;4991178;28;19929;-58
2021/06/03 03:22:41;;;;;;;;;;;16.90;91.60;;;;;;4978746;28;19925;-58
2021/06/03 03:25:10;;;;;;;;;;;17.00;91.20;;;;;;4989556;28;19960;-58
2021/06/03 03:27:38;;;;;;;;;;;17.10;91.10;;;;;;4991826;28;20010;-58
2021/06/03 03:30:06;;;;;;;;;;;17.20;90.60;;;;;;4989804;28;20337;-58
2021/06/03 03:32:33;;;;;;;;;;;17.20;90.50;;;;;;4991118;28;19925;-58
2021/06/03 03:35:00;;;;;;;;;;;17.30;90.80;;;;;;4990934;28;19925;-57
2021/06/03 03:37:28;;;;;;;;;;;17.30;90.80;;;;;;5006895;28;20036;-59
2021/06/03 03:39:56;;;;;;;;;;;17.40;90.60;;;;;;4989039;28;19936;-58
2021/06/03 03:42:23;;;;;;;;;;;17.40;90.40;;;;;;5013184;28;20007;-59
2021/06/03 03:44:52;;;;;;;;;;;17.40;90.50;;;;;;5008433;28;19971;-58
2021/06/03 03:47:19;;;;;;;;;;;17.50;90.50;;;;;;4991076;28;19929;-59
2021/06/03 03:49:45;;;;;;;;;;;17.50;90.50;;;;;;5006236;28;19976;-59
2021/06/03 03:52:16;;;;;;;;;;;17.50;90.40;;;;;;4987005;28;19930;-58
2021/06/03 03:54:43;;;;;;;;;;;17.50;90.60;;;;;;5007976;28;19933;-59
2021/06/03 03:57:10;;;;;;;;;;;17.50;90.60;;;;;;4990730;28;19925;-59
2021/06/03 03:59:37;;;;;;;;;;;17.50;90.40;;;;;;4987959;28;20377;-59
2021/06/03 04:02:03;;;;;;;;;;;17.60;90.10;;;;;;4985242;28;20045;-59
2021/06/03 04:04:30;;;;;;;;;;;17.60;90.20;;;;;;5007212;28;20009;-59
2021/06/03 04:06:57;;;;;;;;;;;17.60;90.20;;;;;;4990697;28;19979;-59
2021/06/03 04:09:24;;;;;;;;;;;17.60;90.40;;;;;;5008023;28;19933;-60
2021/06/03 04:11:51;;;;;;;;;;;17.60;90.60;;;;;;5006652;28;20016;-59
2021/06/03 04:14:17;;;;;;;;;;;17.70;90.20;;;;;;4980477;28;19925;-58
2021/06/03 04:16:48;;;;;;;;;;;17.70;90.20;;;;;;5005076;28;19926;-59
2021/06/03 04:19:23;;;;;;;;;;;17.70;90.80;;;;;;5004653;28;19926;-60
2021/06/03 04:21:50;;;;;;;;;;;17.80;90.30;;;;;;4990770;28;19926;-61
2021/06/03 04:24:19;;;;;;;;;;;17.80;90.50;;;;;;5000562;28;19960;-65
2021/06/03 04:26:47;;;;;;;;;;;17.80;90.50;;;;;;5003160;28;19936;-62
2021/06/03 04:29:14;;;;;;;;;;;17.80;90.70;;;;;;5007105;28;19968;-65
2021/06/03 04:31:43;;;;;;;;;;;17.80;90.40;;;;;;4990289;28;19925;-65
2021/06/03 04:34:11;;;;;;;;;;;17.80;90.40;;;;;;5003689;28;19982;-65
2021/06/03 04:36:37;;;;;;;;;;;17.90;90.30;;;;;;5008974;28;19926;-61
2021/06/03 04:39:06;;;;;;;;;;;17.80;90.20;;;;;;5007458;28;19932;-64
2021/06/03 04:41:35;;;;;;;;;;;17.90;90.10;;;;;;5009058;28;20038;-66
2021/06/03 04:44:01;;;;;;;;;;;17.90;89.90;;;;;;5005616;28;19936;-66
2021/06/03 04:46:27;;;;;;;;;;;17.90;89.80;;;;;;5006325;28;20252;-65
2021/06/03 04:48:56;;;;;;;;;;;18.00;90.00;;;;;;5003445;28;19932;-65
2021/06/03 04:51:23;;;;;;;;;;;18.00;90.00;;;;;;5004547;28;19925;-64
2021/06/03 04:53:51;;;;;;;;;;;18.00;90.30;;;;;;5004196;28;19925;-65
2021/06/03 04:56:18;;;;;;;;;;;18.10;90.20;;;;;;4983878;28;19925;-64
2021/06/03 04:58:45;;;;;;;;;;;18.10;90.10;;;;;;4994599;28;19932;-64
2021/06/03 05:01:11;;;;;;;;;;;18.20;90.20;;;;;;4993640;28;19926;-65
2021/06/03 05:03:39;;;;;;;;;;;18.30;89.50;;;;;;4998397;28;20016;-64
2021/06/03 05:06:06;;;;;;;;;;;18.30;88.70;;;;;;5004638;28;19984;-64
2021/06/03 05:08:32;;;;;;;;;;;18.40;88.90;;;;;;5006743;28;20012;-63
2021/06/03 05:11:01;;;;;;;;;;;18.50;88.60;;;;;;5006494;28;19968;-64
2021/06/03 05:13:58;;;;;;;;;;;18.50;88.50;;;;;;5142289;27;20318;-64
2021/06/03 05:16:25;;;;;;;;;;;18.60;89.60;;;;;;5137707;27;19931;-64
2021/06/03 05:18:51;;;;;;;;;;;18.60;89.00;;;;;;5142535;27;20494;-64
2021/06/03 05:21:19;;;;;;;;;;;18.80;87.40;;;;;;5139343;27;19938;-64
2021/06/03 05:23:46;;;;;;;;;;;18.80;87.40;;;;;;5136690;27;19935;-63
2021/06/03 05:26:12;;;;;;;;;;;18.80;86.70;;;;;;5143330;27;19930;-63
2021/06/03 05:28:40;;;;;;;;;;;18.80;88.40;;;;;;5136150;27;20096;-64
2021/06/03 05:31:06;;;;;;;;;;;19.00;87.60;;;;;;5131698;27;20434;-63
2021/06/03 05:33:32;;;;;;;;;;;19.10;86.10;;;;;;5140077;27;19923;-63
2021/06/03 05:35:58;;;;;;;;;;;19.30;86.90;;;;;;5135411;27;19947;-63
2021/06/03 05:38:26;;;;;;;;;;;19.40;85.80;;;;;;5147096;27;19928;-64
2021/06/03 05:40:52;;;;;;;;;;;19.60;86.30;;;;;;5145161;27;19960;-62
2021/06/03 05:43:19;;;;;;;;;;;19.70;84.30;;;;;;5143547;27;19938;-62
2021/06/03 05:45:45;;;;;;;;;;;19.80;84.90;;;;;;5139915;27;19927;-63
2021/06/03 05:48:11;;;;;;;;;;;19.90;84.40;;;;;;5127379;27;19979;-66
2021/06/03 05:50:37;;;;;;;;;;;20.00;85.00;;;;;;5143198;27;19947;-62
2021/06/03 05:53:09;;;;;;;;;;;20.00;83.50;;;;;;5139745;27;20391;-64
2021/06/03 05:55:41;;;;;;;;;;;20.10;85.20;;;;;;5142335;27;19979;-62
2021/06/03 05:58:13;;;;;;;;;;;20.10;85.40;;;;;;5143726;27;19973;-64
2021/06/03 06:00:39;;;;;;;;;;;20.10;84.90;;;;;;5146979;27;20043;-64
2021/06/03 06:03:19;;;;;;;;;;;20.20;84.80;;;;;;5140974;27;19927;-65
2021/06/03 06:06:10;;;;;;;;;;;20.30;84.30;;;;;;5140222;27;19935;-65
2021/06/03 06:08:37;;;;;;;;;;;20.40;84.20;;;;;;5138126;27;20550;-63
2021/06/03 06:11:03;;;;;;;;;;;20.50;83.70;;;;;;5144095;27;19928;-66
2021/06/03 06:13:32;;;;;;;;;;;20.50;83.70;;;;;;5141304;27;20391;-61
2021/06/03 06:15:58;;;;;;;;;;;20.70;83.40;;;;;;5139651;27;19959;-59
2021/06/03 06:18:25;;;;;;;;;;;20.70;83.10;;;;;;5143741;27;20014;-58
2021/06/03 06:20:51;;;;;;;;;;;20.80;83.00;;;;;;5144427;27;19928;-65
2021/06/03 06:23:20;;;;;;;;;;;20.80;82.40;;;;;;5131626;27;19927;-66
2021/06/03 06:25:50;;;;;;;;;;;20.80;82.60;;;;;;5120383;27;19928;-64
2021/06/03 06:28:17;;;;;;;;;;;20.80;83.10;;;;;;5120115;27;19934;-64
2021/06/03 06:30:52;;;;;;;;;;;20.80;83.80;;;;;;5119594;27;19937;-64
2021/06/03 06:33:23;;;;;;;;;;;20.90;83.30;;;;;;5127441;27;19934;-63
2021/06/03 06:35:50;;;;;;;;;;;20.90;83.80;;;;;;5129126;27;19959;-63
2021/06/03 06:38:20;;;;;;;;;;;20.80;82.90;;;;;;5120129;27;19931;-62
2021/06/03 06:40:46;;;;;;;;;;;20.80;83.60;;;;;;5121541;27;20350;-64
2021/06/03 06:43:14;;;;;;;;;;;21.00;83.70;;;;;;5129705;27;19927;-65
2021/06/03 06:45:44;;;;;;;;;;;21.00;82.90;;;;;;5125099;27;20385;-64
2021/06/03 06:48:11;;;;;;;;;;;21.10;83.30;;;;;;5125074;27;19931;-63
2021/06/03 06:50:37;;;;;;;;;;;21.10;82.20;;;;;;5125242;27;19927;-64
2021/06/03 06:53:10;;;;;;;;;;;21.20;82.70;;;;;;5112776;27;19973;-65
2021/06/03 06:55:39;;;;;;;;;;;21.20;82.00;;;;;;5127436;27;19927;-64
2021/06/03 06:58:08;;;;;;;;;;;21.10;81.90;;;;;;5136606;27;20712;-64
2021/06/03 07:00:38;;;;;;;;;;;21.10;82.70;;;;;;5108886;27;19962;-63
2021/06/03 07:03:09;;;;;;;;;;;21.10;82.40;;;;;;5121568;27;19962;-64
2021/06/03 07:05:40;;;;;;;;;;;21.00;83.20;;;;;;5124425;27;19928;-63
2021/06/03 07:08:06;;;;;;;;;;;21.10;83.20;;;;;;5117884;27;19928;-64
2021/06/03 07:10:33;;;;;;;;;;;21.10;83.10;;;;;;5125894;27;20295;-64
2021/06/03 07:12:59;;;;;;;;;;;21.10;83.10;;;;;;5129177;27;19931;-64
2021/06/03 07:15:25;;;;;;;;;;;21.10;83.10;;;;;;5122573;27;19931;-63
2021/06/03 07:17:53;;;;;;;;;;;21.30;83.20;;;;;;5122436;27;20012;-64
2021/06/03 07:20:22;;;;;;;;;;;21.30;83.40;;;;;;5126766;27;19935;-64
2021/06/03 07:22:50;;;;;;;;;;;21.30;83.20;;;;;;5124299;27;19928;-64
2021/06/03 07:25:17;;;;;;;;;;;21.40;82.80;;;;;;5122181;27;19927;-65
2021/06/03 07:27:46;;;;;;;;;;;21.40;82.60;;;;;;5128713;27;19927;-63
2021/06/03 07:30:17;;;;;;;;;;;21.50;82.90;;;;;;5121985;27;19931;-61
2021/06/03 07:33:03;;;;;;;;;;;21.60;82.80;;;;;;5111067;27;19934;-66
2021/06/03 07:35:31;;;;;;;;;;;21.80;82.40;;;;;;5120513;27;19950;-63
2021/06/03 07:37:57;;;;;;;;;;;22.00;82.90;;;;;;5122567;27;19928;-63
2021/06/03 07:40:25;;;;;;;;;;;22.00;80.30;;;;;;5123121;27;19927;-64
2021/06/03 07:42:52;;;;;;;;;;;22.30;80.70;;;;;;5127172;27;19995;-64
2021/06/03 07:45:22;;;;;;;;;;;22.80;78.20;;;;;;5125402;27;20358;-63
2021/06/03 07:47:52;;;;;;;;;;;23.30;77.70;;;;;;5126606;27;20041;-64
2021/06/03 07:50:18;;;;;;;;;;;23.60;74.80;;;;;;5124776;27;19938;-64
2021/06/03 07:52:44;;;;;;;;;;;23.70;75.30;;;;;;5119994;27;19939;-63
2021/06/03 07:55:12;;;;;;;;;;;23.60;72.80;;;;;;5128133;27;20314;-64
2021/06/03 07:57:39;;;;;;;;;;;23.40;74.20;;;;;;5125091;27;20090;-62
2021/06/03 08:00:08;;;;;;;;;;;23.50;75.40;;;;;;5126821;27;19984;-63
2021/06/03 08:02:44;;;;;;;;;;;23.30;74.70;;;;;;5126715;27;20025;-62
2021/06/03 08:05:15;;;;;;;;;;;23.70;74.60;;;;;;5128576;27;19928;-62
2021/06/03 08:07:41;;;;;;;;;;;23.70;73.90;;;;;;5127474;27;20561;-63
2021/06/03 08:10:11;;;;;;;;;;;23.90;76.10;;;;;;5121987;27;20059;-63
2021/06/03 08:12:38;;;;;;;;;;;24.00;75.60;;;;;;5127952;27;19929;-63
2021/06/03 08:15:07;;;;;;;;;;;24.10;73.20;;;;;;5107247;27;19976;-64
2021/06/03 08:17:47;;;;;;;;;;;24.50;74.40;;;;;;5119054;27;19928;-63
2021/06/03 08:20:16;;;;;;;;;;;24.70;70.70;;;;;;5120086;27;19947;-63
2021/06/03 08:22:42;;;;;;;;;;;24.90;69.60;;;;;;5127188;27;19928;-63
2021/06/03 08:25:10;;;;;;;;;;;25.50;71.30;;;;;;5124789;27;19938;-63
2021/06/03 08:27:36;;;;;;;;;;;25.60;68.40;;;;;;5125785;27;19945;-62
2021/06/03 08:30:05;;;;;;;;;;;26.00;67.20;;;;;;5124535;27;19933;-63
2021/06/03 08:32:41;;;;;;;;;;;26.50;65.80;;;;;;5127148;27;19931;-61
2021/06/03 08:35:13;;;;;;;;;;;26.90;65.00;;;;;;5126731;27;19972;-62
2021/06/03 08:38:03;;;;;;;;;;;26.70;64.90;;;;;;5110956;27;20052;-62
2021/06/03 08:40:36;;;;;;;;;;;26.80;63.60;;;;;;5121578;27;19950;-60
2021/06/03 08:43:04;;;;;;;;;;;26.70;62.90;;;;;;5126831;27;19957;-64
2021/06/03 08:45:32;;;;;;;;;;;26.50;65.40;;;;;;5120251;27;19946;-62
2021/06/03 08:47:58;;;;;;;;;;;27.10;65.40;;;;;;5126677;27;19927;-64
2021/06/03 08:50:28;;;;;;;;;;;26.90;64.50;;;;;;5125712;27;19935;-63
2021/06/03 08:52:55;;;;;;;;;;;26.70;62.80;;;;;;5125621;27;19938;-63
2021/06/03 08:58:09;;;;;;;;;;;26.70;63.70;;;;;;5126642;27;20018;-64
2021/06/03 09:00:36;;;;;;;;;;;26.40;63.80;;;;;;5128917;27;20486;-62
2021/06/03 09:03:02;;;;;;;;;;;26.40;65.80;;;;;;5120248;27;19963;-63
2021/06/03 09:05:28;;;;;;;;;;;26.20;66.30;;;;;;5121462;27;19932;-62
2021/06/03 09:07:55;;;;;;;;;;;26.30;66.80;;;;;;5121169;27;19927;-64
2021/06/03 09:10:27;;;;;;;;;;;26.40;64.50;;;;;;5106842;28;20309;-63
2021/06/03 09:13:05;;;;;;;;;;;26.70;63.80;;;;;;5119682;28;19927;-62
2021/06/03 09:15:32;;;;;;;;;;;27.00;62.60;;;;;;5106140;28;19934;-64
2021/06/03 09:17:58;;;;;;;;;;;27.70;63.20;;;;;;5125614;28;19927;-62
2021/06/03 09:20:25;;;;;;;;;;;28.10;63.40;;;;;;5116815;28;20534;-63
2021/06/03 09:22:53;;;;;;;;;;;28.20;61.30;;;;;;5103803;28;19931;-64
2021/06/03 09:25:25;;;;;;;;;;;28.20;59.70;;;;;;5123725;28;19931;-63
2021/06/03 09:27:52;;;;;;;;;;;28.20;58.50;;;;;;5108576;28;19949;-64
2021/06/03 09:30:21;;;;;;;;;;;28.40;57.30;;;;;;5125513;27;19934;-65
2021/06/03 09:32:51;;;;;;;;;;;28.50;54.70;;;;;;5097469;27;19927;-61
2021/06/03 09:35:18;;;;;;;;;;;28.70;56.40;;;;;;5126637;27;19931;-61
2021/06/03 09:38:02;;;;;;;;;;;28.90;56.00;;;;;;5123171;28;19931;-65
2021/06/03 09:40:35;;;;;;;;;;;29.30;53.50;;;;;;5111438;28;19974;-63
2021/06/03 09:43:10;;;;;;;;;;;29.40;53.60;;;;;;5122826;27;20045;-62
2021/06/03 09:45:52;;;;;;;;;;;29.20;53.50;;;;;;5115381;27;19927;-63
2021/06/03 09:48:34;;;;;;;;;;;29.60;55.80;;;;;;5120590;28;19932;-62
2021/06/03 09:51:19;;;;;;;;;;;29.40;53.60;;;;;;5096443;28;19974;-62
2021/06/03 09:54:03;;;;;;;;;;;29.40;55.10;;;;;;5125656;28;19945;-61
2021/06/03 09:56:35;;;;;;;;;;;30.10;54.20;;;;;;5127399;28;20156;-63
2021/06/03 09:59:03;;;;;;;;;;;29.80;51.60;;;;;;5110059;28;19930;-64
2021/06/03 10:01:38;;;;;;;;;;;29.70;52.30;;;;;;5126166;27;20367;-64
2021/06/03 10:04:07;;;;;;;;;;;29.90;50.90;;;;;;5131087;27;20403;-60
2021/06/03 10:06:34;;;;;;;;;;;30.00;50.70;;;;;;5130069;27;19946;-60
2021/06/03 10:09:00;;;;;;;;;;;29.80;53.00;;;;;;5130124;27;19934;-60
2021/06/03 10:11:49;;;;;;;;;;;29.30;51.20;;;;;;5129299;27;19927;-59
2021/06/03 10:14:17;;;;;;;;;;;30.00;54.70;;;;;;5126709;27;20349;-62
2021/06/03 10:16:43;;;;;;;;;;;30.00;52.60;;;;;;5112354;27;20042;-61
2021/06/03 10:19:35;;;;;;;;;;;30.10;51.40;;;;;;5128834;27;19931;-61
2021/06/03 10:22:18;;;;;;;;;;;29.90;51.20;;;;;;5128381;27;20295;-62
2021/06/03 10:24:57;;;;;;;;;;;30.40;50.20;;;;;;5131273;27;19931;-62
2021/06/03 10:27:25;;;;;;;;;;;30.00;48.00;;;;;;5124052;27;19927;-62
2021/06/03 10:29:53;;;;;;;;;;;30.40;51.40;;;;;;5132283;27;19938;-62
2021/06/03 10:32:21;;;;;;;;;;;30.70;48.40;;;;;;5129262;27;20018;-61
2021/06/03 10:34:48;;;;;;;;;;;30.60;46.80;;;;;;5125752;27;20469;-62
2021/06/03 10:37:14;;;;;;;;;;;30.60;48.30;;;;;;5120579;27;19928;-60
2021/06/03 10:39:42;;;;;;;;;;;30.30;47.90;;;;;;5130230;27;19928;-60
2021/06/03 10:42:11;;;;;;;;;;;29.90;50.40;;;;;;5128781;27;19927;-61
2021/06/03 10:44:41;;;;;;;;;;;29.90;50.20;;;;;;5130021;27;19928;-61
2021/06/03 10:47:13;;;;;;;;;;;30.30;50.30;;;;;;5125811;27;19930;-62
2021/06/03 10:49:40;;;;;;;;;;;30.60;51.20;;;;;;5126441;27;19979;-62
2021/06/03 10:52:07;;;;;;;;;;;31.10;50.70;;;;;;5133192;27;20435;-62
2021/06/03 10:54:53;;;;;;;;;;;30.50;50.30;;;;;;5127520;27;19961;-62
2021/06/03 10:57:21;;;;;;;;;;;30.80;50.00;;;;;;5129145;27;19931;-62
2021/06/03 10:59:47;;;;;;;;;;;30.80;50.40;;;;;;5130614;27;19927;-63
2021/06/03 11:02:16;;;;;;;;;;;31.00;49.70;;;;;;5129302;27;20542;-62
2021/06/03 11:04:43;;;;;;;;;;;31.10;50.40;;;;;;5118848;27;20018;-63
2021/06/03 11:07:10;;;;;;;;;;;31.60;48.90;;;;;;5116609;27;19970;-63
2021/06/03 11:09:38;;;;;;;;;;;31.60;47.80;;;;;;5133411;27;19949;-63
2021/06/03 11:12:07;;;;;;;;;;;31.40;47.00;;;;;;5129527;27;19961;-62
2021/06/03 11:14:53;;;;;;;;;;;31.20;48.10;;;;;;5128645;27;19980;-61
2021/06/03 11:17:39;;;;;;;;;;;31.50;48.00;;;;;;5123352;27;19945;-62
2021/06/03 11:20:07;;;;;;;;;;;31.20;46.50;;;;;;5123260;27;20386;-61
2021/06/03 11:22:33;;;;;;;;;;;31.10;46.80;;;;;;5125149;27;20387;-61
2021/06/03 11:25:04;;;;;;;;;;;31.00;46.50;;;;;;5133462;27;19931;-62
2021/06/03 11:27:35;;;;;;;;;;;31.30;46.50;;;;;;5128941;27;19927;-62
2021/06/03 11:30:03;;;;;;;;;;;31.70;46.90;;;;;;5124150;27;19970;-61
2021/06/03 11:32:34;;;;;;;;;;;32.00;44.20;;;;;;5127064;27;19931;-63
2021/06/03 11:35:07;;;;;;;;;;;32.00;45.60;;;;;;5129862;27;20007;-64
2021/06/03 11:37:36;;;;;;;;;;;32.50;44.50;;;;;;5128983;27;19927;-64
2021/06/03 11:40:05;;;;;;;;;;;32.80;43.80;;;;;;5129510;27;20446;-64
2021/06/03 11:42:35;;;;;;;;;;;33.00;43.70;;;;;;5127381;27;19931;-64
2021/06/03 11:45:01;;;;;;;;;;;33.30;42.90;;;;;;5130451;27;19934;-65
2021/06/03 11:47:28;;;;;;;;;;;33.50;42.40;;;;;;5128005;27;20363;-65
2021/06/03 11:49:59;;;;;;;;;;;33.40;42.00;;;;;;5122561;27;20031;-64
2021/06/03 11:52:25;;;;;;;;;;;33.30;41.60;;;;;;5116047;27;19927;-64
2021/06/03 11:54:51;;;;;;;;;;;33.00;41.40;;;;;;5119046;27;19975;-61
2021/06/03 11:57:18;;;;;;;;;;;33.00;42.50;;;;;;5125060;27;20014;-66
2021/06/03 11:59:53;;;;;;;;;;;32.50;41.90;;;;;;5111160;27;20443;-65
2021/06/03 12:02:33;;;;;;;;;;;32.80;44.20;;;;;;5121766;27;19934;-65
2021/06/03 12:05:12;;;;;;;;;;;33.10;43.40;;;;;;5093929;27;19932;-61
2021/06/03 12:07:42;;;;;;;;;;;32.50;41.20;;;;;;5115140;27;19935;-61
2021/06/03 12:10:09;;;;;;;;;;;32.80;43.90;;;;;;5121348;27;19927;-61
2021/06/03 12:12:36;;;;;;;;;;;32.50;42.70;;;;;;5128724;27;20034;-60
2021/06/03 12:15:15;;;;;;;;;;;32.00;43.10;;;;;;5127185;27;19938;-62
2021/06/03 12:17:41;;;;;;;;;;;32.10;43.40;;;;;;5112090;27;19927;-61
2021/06/03 12:20:09;;;;;;;;;;;32.30;43.50;;;;;;5128851;27;19955;-62
2021/06/03 12:22:35;;;;;;;;;;;32.10;45.00;;;;;;5129449;27;20431;-64
2021/06/03 12:25:05;;;;;;;;;;;31.90;44.90;;;;;;5128664;27;19923;-64
2021/06/03 12:27:32;;;;;;;;;;;31.80;44.10;;;;;;5129267;27;19930;-61
2021/06/03 12:30:17;;;;;;;;;;;31.70;45.70;;;;;;5129468;27;19928;-62
2021/06/03 12:33:04;;;;;;;;;;;32.30;44.20;;;;;;5126932;27;19927;-64
2021/06/03 12:35:42;;;;;;;;;;;31.90;43.90;;;;;;5094320;27;19929;-62
2021/06/03 12:38:09;;;;;;;;;;;32.20;43.20;;;;;;5131263;27;20367;-62
2021/06/03 12:40:36;;;;;;;;;;;32.40;42.40;;;;;;5107898;27;19936;-61
2021/06/03 12:43:06;;;;;;;;;;;32.40;41.70;;;;;;5130540;27;19927;-64
2021/06/03 12:45:37;;;;;;;;;;;32.50;42.90;;;;;;5126048;27;20390;-61
2021/06/03 12:48:11;;;;;;;;;;;32.70;42.00;;;;;;5127576;27;19933;-62
2021/06/03 12:50:38;;;;;;;;;;;33.00;41.10;;;;;;5127687;27;19927;-62
2021/06/03 12:53:10;;;;;;;;;;;33.40;40.20;;;;;;5125992;27;19927;-61
2021/06/03 12:55:40;;;;;;;;;;;32.90;40.90;;;;;;5127505;27;19946;-62
2021/06/03 12:58:10;;;;;;;;;;;33.10;40.50;;;;;;5128345;27;19927;-62
2021/06/03 13:00:40;;;;;;;;;;;33.30;40.00;;;;;;5128143;27;19928;-63
2021/06/03 13:03:14;;;;;;;;;;;33.20;41.00;;;;;;5129920;27;19941;-62
2021/06/03 13:05:44;;;;;;;;;;;33.20;39.60;;;;;;5101548;28;19933;-61
2021/06/03 13:08:10;;;;;;;;;;;33.60;40.00;;;;;;5127903;27;19934;-61
2021/06/03 13:10:39;;;;;;;;;;;33.50;40.00;;;;;;5128407;27;20295;-63
2021/06/03 13:13:06;;;;;;;;;;;33.30;40.40;;;;;;5126313;28;20534;-61
2021/06/03 13:15:37;;;;;;;;;;;33.30;40.90;;;;;;5128052;28;19935;-62
2021/06/03 13:18:07;;;;;;;;;;;33.70;41.20;;;;;;5127717;28;19931;-62
2021/06/03 13:20:38;;;;;;;;;;;33.60;39.60;;;;;;5128704;28;19938;-62
2021/06/03 13:23:10;;;;;;;;;;;34.00;40.30;;;;;;5122411;28;19931;-62
2021/06/03 13:25:44;;;;;;;;;;;33.80;40.20;;;;;;5122988;28;19939;-63
2021/06/03 13:28:11;;;;;;;;;;;34.10;40.10;;;;;;5105925;28;20038;-61
2021/06/03 13:30:39;;;;;;;;;;;33.50;40.20;;;;;;5133148;27;19930;-62
2021/06/03 13:33:05;;;;;;;;;;;32.70;41.30;;;;;;5126755;27;19928;-60
2021/06/03 13:35:32;;;;;;;;;;;32.00;44.20;;;;;;5123682;27;20068;-55
2021/06/03 13:38:03;;;;;;;;;;;32.10;43.60;;;;;;5125876;27;19923;-61
2021/06/03 13:40:29;;;;;;;;;;;32.50;43.30;;;;;;5130091;27;19931;-60
2021/06/03 13:42:57;;;;;;;;;;;33.00;42.60;;;;;;5131879;27;19935;-61
2021/06/03 13:45:43;;;;;;;;;;;33.20;43.40;;;;;;5139145;27;20382;-61
2021/06/03 13:48:36;;;;;;;;;;;33.50;39.30;;;;;;5131119;27;20018;-60
2021/06/03 13:51:05;;;;;;;;;;;33.80;39.20;;;;;;5127115;27;19924;-61
2021/06/03 13:53:35;;;;;;;;;;;33.20;37.80;;;;;;5133430;27;19927;-61
2021/06/03 13:56:18;;;;;;;;;;;33.30;40.40;;;;;;5131517;27;20294;-60
2021/06/03 13:58:50;;;;;;;;;;;32.80;40.30;;;;;;5132228;27;19932;-60
2021/06/03 14:01:16;;;;;;;;;;;32.90;40.90;;;;;;5130903;27;20022;-60
2021/06/03 14:03:44;;;;;;;;;;;33.20;40.40;;;;;;5131319;27;19931;-60
2021/06/03 14:06:11;;;;;;;;;;;33.30;42.40;;;;;;5130731;27;19970;-60
2021/06/03 14:08:40;;;;;;;;;;;33.30;40.30;;;;;;5129931;27;20067;-60
2021/06/03 14:11:29;;;;;;;;;;;33.30;39.00;;;;;;5096231;27;20031;-61
2021/06/03 14:13:57;;;;;;;;;;;33.50;38.20;;;;;;5131526;27;20769;-61
2021/06/03 14:16:35;;;;;;;;;;;33.30;37.90;;;;;;5131198;27;20088;-61
2021/06/03 14:19:08;;;;;;;;;;;32.80;39.50;;;;;;5133550;27;19927;-61
2021/06/03 14:21:46;;;;;;;;;;;32.70;40.30;;;;;;5131129;27;19934;-61
2021/06/03 14:24:25;;;;;;;;;;;32.50;41.10;;;;;;5130732;27;19931;-61
2021/06/03 14:26:51;;;;;;;;;;;32.80;40.80;;;;;;5130156;27;19934;-61
2021/06/03 14:29:17;;;;;;;;;;;32.90;39.90;;;;;;5129997;27;19931;-61
2021/06/03 14:31:48;;;;;;;;;;;31.80;40.90;;;;;;5129723;27;20030;-61
2021/06/03 14:34:27;;;;;;;;;;;31.70;43.30;;;;;;5130474;27;20454;-61